sensor_id;sensor_type;location;lat;lon;timestamp;pressure;altitude;pressure_sealevel;temperature;humidity
77062;BME280;65989;51.686;5.138;2024-03-29T00:00:42;99134.38;;;8.01;71.51
77062;BME280;65989;51.686;5.138;2024-03-29T00:03:10;99135.16;;;8.01;71.29
77062;BME280;65989;51.686;5.138;2024-03-29T00:05:36;99138.06;;;8.00;71.41
77062;BME280;65989;51.686;5.138;2024-03-29T00:08:03;99139.41;;;7.97;71.51
77062;BME280;65989;51.686;5.138;2024-03-29T00:10:28;99124.94;;;7.95;71.99
77062;BME280;65989;51.686;5.138;2024-03-29T00:12:54;99126.50;;;7.96;72.05
77062;BME280;65989;51.686;5.138;2024-03-29T00:15:19;99118.09;;;7.94;71.95
77062;BME280;65989;51.686;5.138;2024-03-29T00:17:45;99131.75;;;7.96;72.02
77062;BME280;65989;51.686;5.138;2024-03-29T00:20:10;99128.66;;;7.94;72.22
77062;BME280;65989;51.686;5.138;2024-03-29T00:22:37;99152.31;;;7.99;72.24
77062;BME280;65989;51.686;5.138;2024-03-29T00:25:02;99145.72;;;8.01;72.20
77062;BME280;65989;51.686;5.138;2024-03-29T00:27:27;99145.94;;;8.05;72.45
77062;BME280;65989;51.686;5.138;2024-03-29T00:29:54;99150.09;;;8.11;72.22
77062;BME280;65989;51.686;5.138;2024-03-29T00:32:20;99154.31;;;8.12;72.13
77062;BME280;65989;51.686;5.138;2024-03-29T00:34:45;99156.66;;;8.14;71.76
77062;BME280;65989;51.686;5.138;2024-03-29T00:37:11;99146.63;;;8.16;71.53
77062;BME280;65989;51.686;5.138;2024-03-29T00:39:36;99157.97;;;8.16;71.77
77062;BME280;65989;51.686;5.138;2024-03-29T00:42:02;99158.53;;;8.13;71.76
77062;BME280;65989;51.686;5.138;2024-03-29T00:44:28;99160.69;;;8.06;72.00
77062;BME280;65989;51.686;5.138;2024-03-29T00:46:53;99156.25;;;8.01;72.23
77062;BME280;65989;51.686;5.138;2024-03-29T00:49:19;99163.66;;;7.99;72.14
77062;BME280;65989;51.686;5.138;2024-03-29T00:51:44;99171.63;;;7.94;72.62
77062;BME280;65989;51.686;5.138;2024-03-29T00:54:09;99174.28;;;7.89;72.37
77062;BME280;65989;51.686;5.138;2024-03-29T00:56:35;99175.63;;;7.86;72.50
77062;BME280;65989;51.686;5.138;2024-03-29T00:59:00;99178.31;;;7.81;72.71
77062;BME280;65989;51.686;5.138;2024-03-29T01:01:25;99185.19;;;7.77;72.78
77062;BME280;65989;51.686;5.138;2024-03-29T01:03:51;99174.47;;;7.63;73.19
77062;BME280;65989;51.686;5.138;2024-03-29T01:06:17;99188.94;;;7.71;73.10
77062;BME280;65989;51.686;5.138;2024-03-29T01:08:42;99185.75;;;7.74;73.09
77062;BME280;65989;51.686;5.138;2024-03-29T01:11:08;99183.09;;;7.74;72.98
77062;BME280;65989;51.686;5.138;2024-03-29T01:13:33;99179.94;;;7.72;72.96
77062;BME280;65989;51.686;5.138;2024-03-29T01:15:59;99175.22;;;7.69;73.19
77062;BME280;65989;51.686;5.138;2024-03-29T01:18:24;99175.75;;;7.71;73.51
77062;BME280;65989;51.686;5.138;2024-03-29T01:20:49;99167.56;;;7.72;73.04
77062;BME280;65989;51.686;5.138;2024-03-29T01:23:15;99168.34;;;7.73;72.91
77062;BME280;65989;51.686;5.138;2024-03-29T01:25:40;99155.44;;;7.71;72.96
77062;BME280;65989;51.686;5.138;2024-03-29T01:28:05;99152.00;;;7.71;72.97
77062;BME280;65989;51.686;5.138;2024-03-29T01:30:31;99154.94;;;7.69;73.10
77062;BME280;65989;51.686;5.138;2024-03-29T01:32:56;99142.53;;;7.70;72.85
77062;BME280;65989;51.686;5.138;2024-03-29T01:35:22;99146.50;;;7.67;73.23
77062;BME280;65989;51.686;5.138;2024-03-29T01:37:47;99140.75;;;7.60;73.12
77062;BME280;65989;51.686;5.138;2024-03-29T01:40:12;99127.31;;;7.61;73.07
77062;BME280;65989;51.686;5.138;2024-03-29T01:42:38;99114.41;;;7.60;73.18
77062;BME280;65989;51.686;5.138;2024-03-29T01:45:04;99115.47;;;7.59;73.21
77062;BME280;65989;51.686;5.138;2024-03-29T01:47:29;99106.31;;;7.51;73.27
77062;BME280;65989;51.686;5.138;2024-03-29T01:49:55;99118.97;;;7.49;73.56
77062;BME280;65989;51.686;5.138;2024-03-29T01:52:21;99118.72;;;7.45;73.70
77062;BME280;65989;51.686;5.138;2024-03-29T01:54:47;99129.53;;;7.44;73.97
77062;BME280;65989;51.686;5.138;2024-03-29T01:57:14;99129.81;;;7.42;73.84
77062;BME280;65989;51.686;5.138;2024-03-29T01:59:41;99125.09;;;7.39;74.04
77062;BME280;65989;51.686;5.138;2024-03-29T02:02:08;99130.63;;;7.38;74.12
77062;BME280;65989;51.686;5.138;2024-03-29T02:04:35;99120.59;;;7.40;74.22
77062;BME280;65989;51.686;5.138;2024-03-29T02:07:01;99127.75;;;7.39;74.24
77062;BME280;65989;51.686;5.138;2024-03-29T02:09:29;99125.88;;;7.40;74.36
77062;BME280;65989;51.686;5.138;2024-03-29T02:11:54;99127.97;;;7.43;74.41
77062;BME280;65989;51.686;5.138;2024-03-29T02:14:19;99130.81;;;7.46;74.35
77062;BME280;65989;51.686;5.138;2024-03-29T02:16:45;99138.47;;;7.48;74.31
77062;BME280;65989;51.686;5.138;2024-03-29T02:19:10;99141.09;;;7.53;73.78
77062;BME280;65989;51.686;5.138;2024-03-29T02:21:37;99132.34;;;7.58;73.81
77062;BME280;65989;51.686;5.138;2024-03-29T02:24:07;99135.22;;;7.61;73.79
77062;BME280;65989;51.686;5.138;2024-03-29T02:26:35;99145.78;;;7.61;73.81
77062;BME280;65989;51.686;5.138;2024-03-29T02:29:03;99154.69;;;7.66;73.93
77062;BME280;65989;51.686;5.138;2024-03-29T02:31:29;99147.81;;;7.70;73.41
77062;BME280;65989;51.686;5.138;2024-03-29T02:33:54;99156.75;;;7.74;73.28
77062;BME280;65989;51.686;5.138;2024-03-29T02:36:20;99149.09;;;7.77;73.20
77062;BME280;65989;51.686;5.138;2024-03-29T02:38:45;99144.28;;;7.80;73.09
77062;BME280;65989;51.686;5.138;2024-03-29T02:41:10;99151.63;;;7.88;72.91
77062;BME280;65989;51.686;5.138;2024-03-29T02:43:36;99152.94;;;7.90;72.70
77062;BME280;65989;51.686;5.138;2024-03-29T02:46:01;99153.38;;;7.98;72.50
77062;BME280;65989;51.686;5.138;2024-03-29T02:48:27;99155.75;;;7.99;72.37
77062;BME280;65989;51.686;5.138;2024-03-29T02:50:52;99143.28;;;8.05;71.80
77062;BME280;65989;51.686;5.138;2024-03-29T02:53:17;99144.59;;;8.07;71.76
77062;BME280;65989;51.686;5.138;2024-03-29T02:55:43;99143.81;;;8.07;71.60
77062;BME280;65989;51.686;5.138;2024-03-29T02:58:08;99154.31;;;8.12;71.67
77062;BME280;65989;51.686;5.138;2024-03-29T03:00:33;99151.69;;;8.12;71.20
77062;BME280;65989;51.686;5.138;2024-03-29T03:02:59;99146.06;;;8.19;71.20
77062;BME280;65989;51.686;5.138;2024-03-29T03:05:24;99155.81;;;8.24;71.07
77062;BME280;65989;51.686;5.138;2024-03-29T03:07:50;99152.09;;;8.25;71.33
77062;BME280;65989;51.686;5.138;2024-03-29T03:10:35;99162.09;;;8.28;71.20
77062;BME280;65989;51.686;5.138;2024-03-29T03:13:19;99176.59;;;8.30;71.24
77062;BME280;65989;51.686;5.138;2024-03-29T03:15:44;99176.25;;;8.37;71.03
77062;BME280;65989;51.686;5.138;2024-03-29T03:18:10;99151.22;;;8.34;71.63
77062;BME280;65989;51.686;5.138;2024-03-29T03:20:35;99154.06;;;8.38;71.07
77062;BME280;65989;51.686;5.138;2024-03-29T03:23:03;99156.16;;;8.41;70.84
77062;BME280;65989;51.686;5.138;2024-03-29T03:25:28;99153.25;;;8.43;71.48
77062;BME280;65989;51.686;5.138;2024-03-29T03:27:54;99157.16;;;8.45;71.37
77062;BME280;65989;51.686;5.138;2024-03-29T03:30:19;99150.00;;;8.46;71.38
77062;BME280;65989;51.686;5.138;2024-03-29T03:32:44;99155.28;;;8.46;71.42
77062;BME280;65989;51.686;5.138;2024-03-29T03:35:10;99148.44;;;8.45;72.08
77062;BME280;65989;51.686;5.138;2024-03-29T03:37:38;99160.34;;;8.42;73.04
77062;BME280;65989;51.686;5.138;2024-03-29T03:40:03;99168.56;;;8.41;73.69
77062;BME280;65989;51.686;5.138;2024-03-29T03:42:29;99174.13;;;8.39;74.13
77062;BME280;65989;51.686;5.138;2024-03-29T03:44:55;99189.44;;;8.37;74.90
77062;BME280;65989;51.686;5.138;2024-03-29T03:47:21;99182.06;;;8.34;75.86
77062;BME280;65989;51.686;5.138;2024-03-29T03:49:46;99195.81;;;8.31;76.25
77062;BME280;65989;51.686;5.138;2024-03-29T03:52:12;99194.50;;;8.33;77.45
77062;BME280;65989;51.686;5.138;2024-03-29T03:54:37;99218.50;;;8.32;78.13
77062;BME280;65989;51.686;5.138;2024-03-29T03:57:04;99212.00;;;8.24;79.15
77062;BME280;65989;51.686;5.138;2024-03-29T03:59:29;99212.88;;;8.14;79.85
77062;BME280;65989;51.686;5.138;2024-03-29T04:01:55;99214.81;;;8.03;81.60
77062;BME280;65989;51.686;5.138;2024-03-29T04:04:20;99221.75;;;7.89;82.89
77062;BME280;65989;51.686;5.138;2024-03-29T04:06:46;99235.00;;;7.78;84.01
77062;BME280;65989;51.686;5.138;2024-03-29T04:09:14;99234.53;;;7.71;85.88
77062;BME280;65989;51.686;5.138;2024-03-29T04:11:41;99226.38;;;7.68;86.08
77062;BME280;65989;51.686;5.138;2024-03-29T04:14:07;99234.56;;;7.66;86.82
77062;BME280;65989;51.686;5.138;2024-03-29T04:16:32;99235.88;;;7.63;87.43
77062;BME280;65989;51.686;5.138;2024-03-29T04:18:57;99236.47;;;7.60;89.00
77062;BME280;65989;51.686;5.138;2024-03-29T04:21:23;99246.22;;;7.55;89.51
77062;BME280;65989;51.686;5.138;2024-03-29T04:23:48;99247.31;;;7.48;89.53
77062;BME280;65989;51.686;5.138;2024-03-29T04:26:13;99239.69;;;7.47;90.43
77062;BME280;65989;51.686;5.138;2024-03-29T04:28:39;99240.50;;;7.42;91.24
77062;BME280;65989;51.686;5.138;2024-03-29T04:31:04;99228.94;;;7.38;91.54
77062;BME280;65989;51.686;5.138;2024-03-29T04:33:29;99239.72;;;7.37;92.41
77062;BME280;65989;51.686;5.138;2024-03-29T04:38:22;99237.69;;;7.28;94.12
77062;BME280;65989;51.686;5.138;2024-03-29T04:40:52;99227.16;;;7.23;95.55
77062;BME280;65989;51.686;5.138;2024-03-29T04:43:18;99236.13;;;7.17;96.31
77062;BME280;65989;51.686;5.138;2024-03-29T04:45:44;99248.25;;;7.13;97.59
77062;BME280;65989;51.686;5.138;2024-03-29T04:48:10;99242.75;;;7.09;98.07
77062;BME280;65989;51.686;5.138;2024-03-29T04:50:36;99244.59;;;7.09;98.52
77062;BME280;65989;51.686;5.138;2024-03-29T04:53:01;99237.50;;;7.04;99.30
77062;BME280;65989;51.686;5.138;2024-03-29T04:55:27;99236.97;;;7.02;99.65
77062;BME280;65989;51.686;5.138;2024-03-29T04:57:52;99238.03;;;7.01;100.00
77062;BME280;65989;51.686;5.138;2024-03-29T05:00:17;99234.63;;;6.95;100.00
77062;BME280;65989;51.686;5.138;2024-03-29T05:02:43;99224.13;;;6.90;100.00
77062;BME280;65989;51.686;5.138;2024-03-29T05:05:08;99230.69;;;6.87;100.00
77062;BME280;65989;51.686;5.138;2024-03-29T05:07:33;99240.97;;;6.84;100.00
77062;BME280;65989;51.686;5.138;2024-03-29T05:09:59;99230.69;;;6.82;100.00
77062;BME280;65989;51.686;5.138;2024-03-29T05:12:25;99232.28;;;6.83;100.00
77062;BME280;65989;51.686;5.138;2024-03-29T05:14:50;99234.13;;;6.83;100.00
77062;BME280;65989;51.686;5.138;2024-03-29T05:17:16;99239.41;;;6.83;100.00
77062;BME280;65989;51.686;5.138;2024-03-29T05:19:42;99236.78;;;6.83;100.00
77062;BME280;65989;51.686;5.138;2024-03-29T05:22:08;99241.50;;;6.81;100.00
77062;BME280;65989;51.686;5.138;2024-03-29T05:24:33;99240.97;;;6.84;100.00
77062;BME280;65989;51.686;5.138;2024-03-29T05:26:59;99235.97;;;6.87;100.00
77062;BME280;65989;51.686;5.138;2024-03-29T05:29:24;99237.53;;;6.83;100.00
77062;BME280;65989;51.686;5.138;2024-03-29T05:31:49;99224.38;;;6.83;100.00
77062;BME280;65989;51.686;5.138;2024-03-29T05:34:15;99226.25;;;6.83;100.00
77062;BME280;65989;51.686;5.138;2024-03-29T05:36:40;99233.84;;;6.84;100.00
77062;BME280;65989;51.686;5.138;2024-03-29T05:39:06;99233.34;;;6.82;100.00
77062;BME280;65989;51.686;5.138;2024-03-29T05:41:31;99234.66;;;6.80;100.00
77062;BME280;65989;51.686;5.138;2024-03-29T05:43:58;99241.00;;;6.79;100.00
77062;BME280;65989;51.686;5.138;2024-03-29T05:46:23;99246.50;;;6.82;100.00
77062;BME280;65989;51.686;5.138;2024-03-29T05:48:48;99238.34;;;6.84;100.00
77062;BME280;65989;51.686;5.138;2024-03-29T05:51:14;99239.41;;;6.83;100.00
77062;BME280;65989;51.686;5.138;2024-03-29T05:53:39;99243.34;;;6.85;100.00
77062;BME280;65989;51.686;5.138;2024-03-29T05:56:06;99245.44;;;6.88;100.00
77062;BME280;65989;51.686;5.138;2024-03-29T05:58:34;99255.97;;;6.88;100.00
77062;BME280;65989;51.686;5.138;2024-03-29T06:01:00;99259.13;;;6.91;100.00
77062;BME280;65989;51.686;5.138;2024-03-29T06:03:25;99251.75;;;6.93;100.00
77062;BME280;65989;51.686;5.138;2024-03-29T06:05:50;99257.81;;;6.93;100.00
77062;BME280;65989;51.686;5.138;2024-03-29T06:08:16;99259.88;;;6.96;100.00
77062;BME280;65989;51.686;5.138;2024-03-29T06:10:41;99256.47;;;6.96;100.00
77062;BME280;65989;51.686;5.138;2024-03-29T06:13:07;99270.69;;;7.05;100.00
77062;BME280;65989;51.686;5.138;2024-03-29T06:15:35;99264.88;;;7.08;100.00
77062;BME280;65989;51.686;5.138;2024-03-29T06:18:19;99272.25;;;7.11;100.00
77062;BME280;65989;51.686;5.138;2024-03-29T06:20:46;99270.09;;;7.13;100.00
77062;BME280;65989;51.686;5.138;2024-03-29T06:23:11;99270.38;;;7.17;100.00
77062;BME280;65989;51.686;5.138;2024-03-29T06:25:37;99271.66;;;7.25;100.00
77062;BME280;65989;51.686;5.138;2024-03-29T06:28:03;99278.75;;;7.29;100.00
77062;BME280;65989;51.686;5.138;2024-03-29T06:30:29;99281.91;;;7.31;100.00
77062;BME280;65989;51.686;5.138;2024-03-29T06:32:54;99284.81;;;7.35;100.00
77062;BME280;65989;51.686;5.138;2024-03-29T06:35:20;99280.56;;;7.39;100.00
77062;BME280;65989;51.686;5.138;2024-03-29T06:37:47;99277.41;;;7.42;100.00
77062;BME280;65989;51.686;5.138;2024-03-29T06:40:12;99278.16;;;7.48;100.00
77062;BME280;65989;51.686;5.138;2024-03-29T06:42:38;99280.78;;;7.53;100.00
77062;BME280;65989;51.686;5.138;2024-03-29T06:45:04;99270.75;;;7.55;100.00
77062;BME280;65989;51.686;5.138;2024-03-29T06:47:31;99274.16;;;7.56;100.00
77062;BME280;65989;51.686;5.138;2024-03-29T06:49:56;99244.94;;;7.52;100.00
77062;BME280;65989;51.686;5.138;2024-03-29T06:52:22;99243.84;;;7.58;100.00
77062;BME280;65989;51.686;5.138;2024-03-29T06:54:47;99263.31;;;7.62;100.00
77062;BME280;65989;51.686;5.138;2024-03-29T06:57:12;99265.69;;;7.64;100.00
77062;BME280;65989;51.686;5.138;2024-03-29T06:59:41;99263.81;;;7.65;100.00
77062;BME280;65989;51.686;5.138;2024-03-29T07:02:06;99261.44;;;7.68;100.00
77062;BME280;65989;51.686;5.138;2024-03-29T07:04:32;99268.81;;;7.71;100.00
77062;BME280;65989;51.686;5.138;2024-03-29T07:06:58;99268.50;;;7.78;100.00
77062;BME280;65989;51.686;5.138;2024-03-29T07:09:24;99276.41;;;7.78;100.00
77062;BME280;65989;51.686;5.138;2024-03-29T07:11:50;99284.34;;;7.78;100.00
77062;BME280;65989;51.686;5.138;2024-03-29T07:14:18;99287.75;;;7.78;100.00
77062;BME280;65989;51.686;5.138;2024-03-29T07:16:44;99290.88;;;7.86;100.00
77062;BME280;65989;51.686;5.138;2024-03-29T07:19:11;99294.84;;;7.83;100.00
77062;BME280;65989;51.686;5.138;2024-03-29T07:21:38;99290.34;;;7.84;100.00
77062;BME280;65989;51.686;5.138;2024-03-29T07:24:04;99299.84;;;7.85;100.00
77062;BME280;65989;51.686;5.138;2024-03-29T07:26:29;99289.59;;;7.83;100.00
77062;BME280;65989;51.686;5.138;2024-03-29T07:28:54;99296.47;;;7.79;100.00
77062;BME280;65989;51.686;5.138;2024-03-29T07:31:20;99299.09;;;7.79;100.00
77062;BME280;65989;51.686;5.138;2024-03-29T07:33:45;99297.50;;;7.78;100.00
77062;BME280;65989;51.686;5.138;2024-03-29T07:36:11;99299.09;;;7.79;100.00
77062;BME280;65989;51.686;5.138;2024-03-29T07:38:37;99295.66;;;7.78;100.00
77062;BME280;65989;51.686;5.138;2024-03-29T07:41:05;99308.28;;;7.82;100.00
77062;BME280;65989;51.686;5.138;2024-03-29T07:43:39;99293.53;;;7.81;100.00
77062;BME280;65989;51.686;5.138;2024-03-29T07:46:05;99295.13;;;7.82;100.00
77062;BME280;65989;51.686;5.138;2024-03-29T07:48:33;99317.78;;;7.83;100.00
77062;BME280;65989;51.686;5.138;2024-03-29T07:50:59;99318.59;;;7.83;100.00
77062;BME280;65989;51.686;5.138;2024-03-29T07:53:24;99310.38;;;7.85;100.00
77062;BME280;65989;51.686;5.138;2024-03-29T07:55:50;99305.63;;;7.87;100.00
77062;BME280;65989;51.686;5.138;2024-03-29T07:58:15;99307.47;;;7.91;100.00
77062;BME280;65989;51.686;5.138;2024-03-29T08:00:42;99310.13;;;7.91;100.00
77062;BME280;65989;51.686;5.138;2024-03-29T08:03:07;99314.06;;;7.89;100.00
77062;BME280;65989;51.686;5.138;2024-03-29T08:05:33;99320.38;;;7.93;100.00
77062;BME280;65989;51.686;5.138;2024-03-29T08:07:59;99312.22;;;7.89;100.00
77062;BME280;65989;51.686;5.138;2024-03-29T08:10:25;99321.72;;;7.90;100.00
77062;BME280;65989;51.686;5.138;2024-03-29T08:12:50;99316.38;;;7.96;100.00
77062;BME280;65989;51.686;5.138;2024-03-29T08:15:16;99316.34;;;8.06;100.00
77062;BME280;65989;51.686;5.138;2024-03-29T08:17:43;99302.97;;;8.32;100.00
77062;BME280;65989;51.686;5.138;2024-03-29T08:20:09;99292.28;;;8.52;100.00
77062;BME280;65989;51.686;5.138;2024-03-29T08:22:34;99289.53;;;8.63;100.00
77062;BME280;65989;51.686;5.138;2024-03-29T08:25:00;99307.94;;;8.73;100.00
77062;BME280;65989;51.686;5.138;2024-03-29T08:27:27;99312.06;;;8.85;100.00
77062;BME280;65989;51.686;5.138;2024-03-29T08:29:52;99318.16;;;9.09;100.00
77062;BME280;65989;51.686;5.138;2024-03-29T08:32:18;99321.78;;;9.43;100.00
77062;BME280;65989;51.686;5.138;2024-03-29T08:34:43;99307.22;;;9.84;98.59
77062;BME280;65989;51.686;5.138;2024-03-29T08:37:09;99311.09;;;10.11;95.60
77062;BME280;65989;51.686;5.138;2024-03-29T08:39:34;99302.31;;;10.29;94.15
77062;BME280;65989;51.686;5.138;2024-03-29T08:42:00;99308.34;;;10.35;93.07
77062;BME280;65989;51.686;5.138;2024-03-29T08:44:33;99308.78;;;10.42;92.06
77062;BME280;65989;51.686;5.138;2024-03-29T08:46:59;99302.75;;;10.56;91.52
77062;BME280;65989;51.686;5.138;2024-03-29T08:49:29;99314.44;;;10.69;90.19
77062;BME280;65989;51.686;5.138;2024-03-29T08:51:56;99312.31;;;10.85;87.75
77062;BME280;65989;51.686;5.138;2024-03-29T08:54:21;99317.63;;;10.99;86.08
77062;BME280;65989;51.686;5.138;2024-03-29T08:56:47;99326.28;;;10.90;84.74
77062;BME280;65989;51.686;5.138;2024-03-29T08:59:12;99334.22;;;10.90;85.21
77062;BME280;65989;51.686;5.138;2024-03-29T09:01:42;99332.94;;;11.02;86.84
77062;BME280;65989;51.686;5.138;2024-03-29T09:04:07;99332.75;;;10.98;85.24
77062;BME280;65989;51.686;5.138;2024-03-29T09:06:38;99323.72;;;10.99;84.40
77062;BME280;65989;51.686;5.138;2024-03-29T09:09:05;99327.44;;;10.98;84.70
77062;BME280;65989;51.686;5.138;2024-03-29T09:11:31;99326.38;;;11.13;84.12
77062;BME280;65989;51.686;5.138;2024-03-29T09:13:56;99314.41;;;11.58;85.31
77062;BME280;65989;51.686;5.138;2024-03-29T09:16:24;99335.25;;;12.01;82.97
77062;BME280;65989;51.686;5.138;2024-03-29T09:18:50;99342.03;;;12.53;83.79
77062;BME280;65989;51.686;5.138;2024-03-29T09:21:16;99328.72;;;12.76;80.22
77062;BME280;65989;51.686;5.138;2024-03-29T09:23:41;99329.38;;;12.81;78.34
77062;BME280;65989;51.686;5.138;2024-03-29T09:26:07;99332.56;;;12.92;78.95
77062;BME280;65989;51.686;5.138;2024-03-29T09:28:33;99330.75;;;13.10;78.85
77062;BME280;65989;51.686;5.138;2024-03-29T09:31:00;99332.22;;;13.25;76.60
77062;BME280;65989;51.686;5.138;2024-03-29T09:33:26;99326.50;;;13.41;76.35
77062;BME280;65989;51.686;5.138;2024-03-29T09:35:51;99333.25;;;13.47;75.72
77062;BME280;65989;51.686;5.138;2024-03-29T09:38:19;99327.47;;;13.54;74.71
77062;BME280;65989;51.686;5.138;2024-03-29T09:40:44;99331.41;;;13.65;75.42
77062;BME280;65989;51.686;5.138;2024-03-29T09:43:10;99350.69;;;13.80;75.19
77062;BME280;65989;51.686;5.138;2024-03-29T09:45:36;99351.34;;;13.94;74.09
77062;BME280;65989;51.686;5.138;2024-03-29T09:48:08;99362.28;;;13.84;72.89
77062;BME280;65989;51.686;5.138;2024-03-29T09:50:35;99363.22;;;13.79;72.14
77062;BME280;65989;51.686;5.138;2024-03-29T09:53:04;99367.94;;;13.73;72.92
77062;BME280;65989;51.686;5.138;2024-03-29T09:55:30;99365.84;;;13.62;71.74
77062;BME280;65989;51.686;5.138;2024-03-29T09:57:56;99356.13;;;13.48;71.27
77062;BME280;65989;51.686;5.138;2024-03-29T10:00:22;99345.22;;;13.27;71.97
77062;BME280;65989;51.686;5.138;2024-03-29T10:02:49;99347.84;;;13.18;73.26
77062;BME280;65989;51.686;5.138;2024-03-29T10:05:16;99356.78;;;13.22;74.08
77062;BME280;65989;51.686;5.138;2024-03-29T10:07:43;99345.50;;;13.17;74.05
77062;BME280;65989;51.686;5.138;2024-03-29T10:10:12;99338.09;;;13.05;74.92
77062;BME280;65989;51.686;5.138;2024-03-29T10:12:38;99337.69;;;12.89;75.57
77062;BME280;65989;51.686;5.138;2024-03-29T10:15:04;99344.19;;;12.74;76.55
77062;BME280;65989;51.686;5.138;2024-03-29T10:17:45;99363.59;;;12.74;77.84
77062;BME280;65989;51.686;5.138;2024-03-29T10:20:11;99360.13;;;12.74;77.15
77062;BME280;65989;51.686;5.138;2024-03-29T10:22:41;99344.78;;;12.70;76.53
77062;BME280;65989;51.686;5.138;2024-03-29T10:25:06;99366.66;;;12.67;77.07
77062;BME280;65989;51.686;5.138;2024-03-29T10:27:32;99367.16;;;12.69;78.03
77062;BME280;65989;51.686;5.138;2024-03-29T10:29:59;99367.03;;;12.75;77.93
77062;BME280;65989;51.686;5.138;2024-03-29T10:32:24;99363.84;;;12.95;75.52
77062;BME280;65989;51.686;5.138;2024-03-29T10:34:49;99352.56;;;13.21;77.18
77062;BME280;65989;51.686;5.138;2024-03-29T10:37:15;99349.94;;;13.30;73.70
77062;BME280;65989;51.686;5.138;2024-03-29T10:39:45;99352.19;;;13.46;73.97
77062;BME280;65989;51.686;5.138;2024-03-29T10:42:10;99348.63;;;13.59;73.91
77062;BME280;65989;51.686;5.138;2024-03-29T10:44:38;99353.34;;;13.71;73.59
77062;BME280;65989;51.686;5.138;2024-03-29T10:47:06;99347.13;;;13.84;70.93
77062;BME280;65989;51.686;5.138;2024-03-29T10:49:32;99363.25;;;13.97;70.69
77062;BME280;65989;51.686;5.138;2024-03-29T10:51:59;99380.81;;;14.07;70.09
77062;BME280;65989;51.686;5.138;2024-03-29T10:54:25;99379.09;;;14.28;69.71
77062;BME280;65989;51.686;5.138;2024-03-29T10:57:06;99371.88;;;14.38;68.93
77062;BME280;65989;51.686;5.138;2024-03-29T10:59:41;99395.69;;;14.34;69.16
77062;BME280;65989;51.686;5.138;2024-03-29T11:02:13;99394.13;;;14.33;69.64
77062;BME280;65989;51.686;5.138;2024-03-29T11:04:46;99394.75;;;14.30;68.38
77062;BME280;65989;51.686;5.138;2024-03-29T11:07:17;99393.34;;;14.32;67.44
77062;BME280;65989;51.686;5.138;2024-03-29T11:09:49;99367.19;;;14.34;67.27
77062;BME280;65989;51.686;5.138;2024-03-29T11:12:16;99361.69;;;14.48;67.26
77062;BME280;65989;51.686;5.138;2024-03-29T11:14:45;99353.50;;;14.62;67.27
77062;BME280;65989;51.686;5.138;2024-03-29T11:17:15;99354.13;;;14.86;66.02
77062;BME280;65989;51.686;5.138;2024-03-29T11:19:41;99350.91;;;15.01;64.15
77062;BME280;65989;51.686;5.138;2024-03-29T11:22:07;99357.63;;;15.07;64.75
77062;BME280;65989;51.686;5.138;2024-03-29T11:24:33;99360.78;;;15.10;63.57
77062;BME280;65989;51.686;5.138;2024-03-29T11:27:07;99356.44;;;15.26;63.34
77062;BME280;65989;51.686;5.138;2024-03-29T11:29:33;99363.56;;;15.22;61.79
77062;BME280;65989;51.686;5.138;2024-03-29T11:32:03;99364.16;;;15.28;60.92
77062;BME280;65989;51.686;5.138;2024-03-29T11:34:33;99377.31;;;15.33;61.31
77062;BME280;65989;51.686;5.138;2024-03-29T11:37:12;99381.63;;;15.46;62.15
77062;BME280;65989;51.686;5.138;2024-03-29T11:39:38;99387.38;;;15.57;61.85
77062;BME280;65989;51.686;5.138;2024-03-29T11:42:05;99382.56;;;15.80;61.97
77062;BME280;65989;51.686;5.138;2024-03-29T11:44:34;99384.06;;;15.99;61.00
77062;BME280;65989;51.686;5.138;2024-03-29T11:46:59;99389.97;;;16.05;59.73
77062;BME280;65989;51.686;5.138;2024-03-29T11:49:25;99389.31;;;15.87;59.56
77062;BME280;65989;51.686;5.138;2024-03-29T11:51:50;99395.44;;;15.78;61.18
77062;BME280;65989;51.686;5.138;2024-03-29T11:54:18;99397.66;;;15.76;60.45
77062;BME280;65989;51.686;5.138;2024-03-29T11:56:43;99395.78;;;15.77;59.82
77062;BME280;65989;51.686;5.138;2024-03-29T11:59:09;99390.56;;;15.89;60.07
77062;BME280;65989;51.686;5.138;2024-03-29T12:01:35;99399.00;;;15.91;58.75
77062;BME280;65989;51.686;5.138;2024-03-29T12:04:01;99400.66;;;16.05;59.44
77062;BME280;65989;51.686;5.138;2024-03-29T12:06:26;99407.00;;;16.21;59.08
77062;BME280;65989;51.686;5.138;2024-03-29T12:08:52;99414.59;;;16.32;58.54
77062;BME280;65989;51.686;5.138;2024-03-29T12:11:18;99397.91;;;16.35;56.18
77062;BME280;65989;51.686;5.138;2024-03-29T12:13:44;99391.56;;;16.39;56.12
77062;BME280;65989;51.686;5.138;2024-03-29T12:16:10;99390.97;;;16.55;56.40
77062;BME280;65989;51.686;5.138;2024-03-29T12:18:35;99394.00;;;16.53;56.73
77062;BME280;65989;51.686;5.138;2024-03-29T12:21:01;99402.78;;;16.54;55.02
77062;BME280;65989;51.686;5.138;2024-03-29T12:23:27;99394.84;;;16.45;55.33
77062;BME280;65989;51.686;5.138;2024-03-29T12:25:57;99391.72;;;16.43;56.25
77062;BME280;65989;51.686;5.138;2024-03-29T12:28:24;99392.81;;;16.42;56.43
77062;BME280;65989;51.686;5.138;2024-03-29T12:30:50;99395.81;;;16.40;55.08
77062;BME280;65989;51.686;5.138;2024-03-29T12:33:21;99398.47;;;16.40;56.37
77062;BME280;65989;51.686;5.138;2024-03-29T12:35:48;99397.84;;;16.43;56.31
77062;BME280;65989;51.686;5.138;2024-03-29T12:38:15;99386.81;;;16.45;57.39
77062;BME280;65989;51.686;5.138;2024-03-29T12:40:42;99393.31;;;16.56;57.96
77062;BME280;65989;51.686;5.138;2024-03-29T12:43:14;99402.25;;;16.61;57.59
77062;BME280;65989;51.686;5.138;2024-03-29T12:45:41;99409.88;;;16.71;56.07
77062;BME280;65989;51.686;5.138;2024-03-29T12:48:15;99404.19;;;16.72;55.66
77062;BME280;65989;51.686;5.138;2024-03-29T12:50:42;99395.03;;;16.73;54.90
77062;BME280;65989;51.686;5.138;2024-03-29T12:53:08;99397.56;;;16.91;55.92
77062;BME280;65989;51.686;5.138;2024-03-29T12:55:34;99404.75;;;16.99;54.74
77062;BME280;65989;51.686;5.138;2024-03-29T12:58:01;99402.28;;;17.07;54.77
77062;BME280;65989;51.686;5.138;2024-03-29T13:00:30;99411.22;;;17.11;53.36
77062;BME280;65989;51.686;5.138;2024-03-29T13:02:55;99409.88;;;17.17;52.59